createdAt,value
2022-12-23T00:04:01.557Z,98552.31
2022-12-23T00:06:29.534Z,98562.47
2022-12-23T00:21:37.915Z,98580.38
2022-12-23T00:24:06.045Z,98589.97
2022-12-23T00:26:33.801Z,98590.34
2022-12-23T00:30:09.191Z,98600.94
2022-12-23T00:53:29.430Z,98619.25
2022-12-23T01:12:35.737Z,98630.66
2022-12-23T01:15:18.419Z,98637.56
2022-12-23T01:28:40.688Z,98625.97
2022-12-23T02:13:08.464Z,98600.09
2022-12-23T02:37:46.591Z,98615.38
2022-12-23T03:27:21.773Z,98622.88
2022-12-23T03:30:59.184Z,98625.50
2022-12-23T03:59:32.505Z,98608.63
2022-12-23T06:55:11.405Z,98590.44
2022-12-23T06:57:38.775Z,98592.69
2022-12-23T07:00:08.524Z,98594.94
2022-12-23T07:02:36.109Z,98592.69
2022-12-23T07:05:03.599Z,98582.75
2022-12-23T07:07:32.831Z,98589.63
2022-12-23T07:09:59.926Z,98583.94
2022-12-23T07:12:27.372Z,98594.94
2022-12-23T07:36:40.033Z,98589.69
2022-12-23T07:39:07.595Z,98598.66
2022-12-23T07:41:35.012Z,98594.19
2022-12-23T07:44:08.796Z,98594.00
2022-12-23T07:46:36.046Z,98591.34
2022-12-23T07:49:03.515Z,98591.13
2022-12-23T07:51:31.746Z,98590.97
2022-12-23T07:53:59.271Z,98598.50
2022-12-23T07:56:26.478Z,98593.00
2022-12-23T07:58:54.461Z,98587.34
2022-12-23T08:01:23.087Z,98591.41
2022-12-23T08:03:50.519Z,98582.44
2022-12-23T08:06:17.838Z,98587.75
2022-12-23T08:08:46.637Z,98585.72
2022-12-23T08:11:15.782Z,98574.34
2022-12-23T08:13:45.711Z,98574.34
2022-12-23T08:16:12.999Z,98576.78
2022-12-23T08:18:42.074Z,98580.84
2022-12-23T09:19:09.697Z,98544.75
2022-12-23T09:21:55.643Z,98535.41
2022-12-23T09:24:23.053Z,98533.34
2022-12-23T09:26:50.719Z,98531.34
2022-12-23T09:29:18.034Z,98537.25
2022-12-23T09:31:45.515Z,98527.88
2022-12-23T09:34:12.983Z,98535.41
2022-12-23T09:36:40.463Z,98533.16
2022-12-23T09:39:07.847Z,98527.28
2022-12-23T09:41:50.967Z,98525.25
2022-12-23T09:44:57.298Z,98517.09
2022-12-23T09:47:29.626Z,98515.88
2022-12-23T09:50:03.009Z,98515.88
2022-12-23T09:53:00.730Z,98510.59
2022-12-23T10:00:34.332Z,98492.66
2022-12-23T10:04:04.426Z,98495.53
2022-12-23T10:06:34.609Z,98491.47
2022-12-23T10:09:05.465Z,98490.22
2022-12-23T10:11:41.029Z,98482.25
2022-12-23T10:14:29.332Z,98477.97
2022-12-23T10:17:04.985Z,98472.47
2022-12-23T10:19:42.126Z,98470.63
2022-12-23T10:22:40.245Z,98475.50
2022-12-23T10:25:22.806Z,98475.06
2022-12-23T10:27:50.315Z,98469.34
2022-12-23T10:33:16.776Z,98478.69
2022-12-23T10:36:15.502Z,98474.97
2022-12-23T10:39:31.615Z,98468.63
2022-12-23T11:14:32.941Z,98471.53
2022-12-23T11:17:49.746Z,98473.13
2022-12-23T11:20:20.210Z,98467.41
2022-12-23T11:27:27.599Z,98460.06
2022-12-23T11:29:55.247Z,98454.75
2022-12-23T11:32:28.838Z,98466.38
2022-12-23T11:36:47.778Z,98461.25
2022-12-23T11:39:25.227Z,98455.16
2022-12-23T11:42:19.539Z,98440.88
2022-12-23T11:44:52.426Z,98444.94
2022-12-23T11:47:22.617Z,98447.75
2022-12-23T11:54:23.450Z,98443.59
2022-12-23T11:56:53.682Z,98450.94
2022-12-23T11:59:37.077Z,98444.78
2022-12-23T12:02:20.640Z,98440.66
2022-12-23T12:09:06.894Z,98445.88
2022-12-23T12:12:21.960Z,98448.69
2022-12-23T12:14:56.595Z,98444.41
2022-12-23T12:17:49.271Z,98452.72
2022-12-23T12:20:29.022Z,98453.53
2022-12-23T12:23:04.785Z,98454.34
2022-12-23T12:25:52.761Z,98453.09
2022-12-23T12:28:26.015Z,98446.31
2022-12-23T12:31:03.640Z,98455.50
2022-12-23T12:34:01.874Z,98444.44
2022-12-23T12:36:48.985Z,98443.94
2022-12-23T12:39:28.166Z,98450.84
2022-12-23T12:42:11.716Z,98448.78
2022-12-23T12:45:09.944Z,98448.59
2022-12-23T12:47:57.851Z,98447.13
2022-12-23T12:50:36.348Z,98431.56
2022-12-23T12:53:17.780Z,98438.88
2022-12-23T12:55:53.001Z,98440.63
2022-12-23T12:58:23.826Z,98442.66
2022-12-23T13:01:09.534Z,98438.75
2022-12-23T13:04:22.361Z,98448.09
2022-12-23T13:07:15.758Z,98445.22
2022-12-23T13:10:39.751Z,98450.09
2022-12-23T13:14:07.534Z,98448.84
2022-12-23T13:17:00.396Z,98451.25
2022-12-23T13:19:58.048Z,98458.22
2022-12-23T13:22:34.128Z,98454.50
2022-12-23T13:25:20.473Z,98459.16
2022-12-23T13:28:17.382Z,98457.31
2022-12-23T13:31:06.436Z,98462.19
2022-12-23T13:34:02.229Z,98454.81
2022-12-23T13:37:20.210Z,98455.84
2022-12-23T13:40:29.164Z,98458.50
2022-12-23T13:43:21.563Z,98455.84
2022-12-23T13:45:53.320Z,98464.59
2022-12-23T13:48:55.811Z,98472.38
2022-12-23T13:52:23.254Z,98465.84
2022-12-23T13:55:08.740Z,98465.84
2022-12-23T13:58:03.878Z,98471.16
2022-12-23T14:00:34.404Z,98471.16
2022-12-23T14:03:01.661Z,98475.69
2022-12-23T14:06:29.071Z,98475.31
2022-12-23T14:08:56.369Z,98476.34
2022-12-23T14:11:34.376Z,98481.06
2022-12-23T14:14:17.579Z,98474.16
2022-12-23T14:57:17.279Z,98513.69
2022-12-23T15:00:05.800Z,98523.50
2022-12-23T15:02:41.222Z,98524.50
2022-12-23T15:05:10.246Z,98509.63
2022-12-23T15:07:42.138Z,98512.72
2022-12-23T15:10:18.639Z,98519.50
2022-12-23T15:12:57.730Z,98531.13
2022-12-23T15:15:30.657Z,98534.59
2022-12-23T15:18:15.862Z,98529.50
2022-12-23T15:20:43.288Z,98529.94
2022-12-23T15:23:16.056Z,98518.75
2022-12-23T15:25:48.759Z,98521.59
2022-12-23T15:28:21.615Z,98522.84
2022-12-23T15:30:54.831Z,98521.44
2022-12-23T15:36:20.281Z,98518.84
2022-12-23T15:38:47.773Z,98510.28
2022-12-23T15:41:18.526Z,98509.06
2022-12-23T15:43:45.878Z,98504.22
2022-12-23T15:46:29.015Z,98517.31
2022-12-23T15:48:57.927Z,98517.75
2022-12-23T15:52:06.555Z,98521.63
2022-12-23T15:54:30.051Z,98518.59
2022-12-23T15:57:01.725Z,98518.59
2022-12-23T15:59:37.949Z,98524.34
2022-12-23T16:02:59.025Z,98523.53
2022-12-23T16:05:13.339Z,98513.72
2022-12-23T16:07:42.429Z,98517.41
2022-12-23T16:13:44.903Z,98512.94
2022-12-23T16:16:32.785Z,98514.16
2022-12-23T16:19:00.585Z,98512.97
2022-12-23T17:44:33.033Z,98501.44
2022-12-23T19:36:38.738Z,98563.88
2022-12-23T19:39:06.387Z,98553.28
2022-12-23T19:41:33.435Z,98547.19
2022-12-23T19:49:19.208Z,98547.78
2022-12-23T19:51:47.350Z,98545.38
2022-12-23T19:54:15.079Z,98540.28
2022-12-23T19:56:42.416Z,98543.94
2022-12-23T19:59:09.856Z,98549.25
2022-12-23T20:01:37.038Z,98549.25
2022-12-23T20:04:04.619Z,98554.53
2022-12-23T20:06:34.739Z,98556.56
2022-12-23T20:09:06.314Z,98552.28
2022-12-23T20:11:37.539Z,98550.88
2022-12-23T20:14:06.811Z,98544.16
2022-12-23T20:16:35.558Z,98541.94
2022-12-23T20:19:05.282Z,98547.22
2022-12-23T20:21:34.100Z,98541.94
2022-12-23T20:24:01.806Z,98547.63
2022-12-23T20:26:29.211Z,98542.34
2022-12-23T20:28:57.547Z,98542.34
2022-12-23T20:31:28.855Z,98533.78
2022-12-23T20:33:57.954Z,98532.97
2022-12-23T20:36:29.840Z,98526.03
2022-12-23T20:38:57.979Z,98518.50
2022-12-23T20:41:28.506Z,98513.44
2022-12-23T20:44:32.486Z,98516.09
2022-12-23T20:46:43.965Z,98517.31
2022-12-23T20:49:11.299Z,98512.22
2022-12-23T20:51:38.350Z,98502.06
2022-12-23T20:54:05.764Z,98495.97
2022-12-23T20:56:32.863Z,98490.66
2022-12-23T20:59:02.463Z,98489.03
2022-12-23T21:01:35.744Z,98486.19
2022-12-23T21:04:07.443Z,98499.19
2022-12-23T21:06:36.117Z,98485.38
2022-12-23T21:09:07.937Z,98486.78
2022-12-23T21:11:39.145Z,98490.25
2022-12-23T21:14:07.813Z,98488.63
2022-12-23T21:16:38.328Z,98480.09
2022-12-23T21:19:25.625Z,98475.63
2022-12-23T21:21:53.724Z,98480.50
2022-12-23T21:24:21.465Z,98476.81
2022-12-23T21:26:56.529Z,98470.31
2022-12-23T21:29:26.113Z,98468.69
2022-12-23T21:31:53.526Z,98463.00
2022-12-23T21:34:21.012Z,98468.69
2022-12-23T21:36:48.172Z,98464.81
2022-12-23T21:39:16.876Z,98467.06
2022-12-23T21:41:44.246Z,98453.03
2022-12-23T21:44:15.650Z,98449.56
2022-12-23T21:46:42.937Z,98458.13
2022-12-23T21:49:10.957Z,98450.59
2022-12-23T21:51:40.837Z,98451.19
2022-12-23T21:54:11.434Z,98442.06
2022-12-23T21:56:40.650Z,98443.06
2022-12-23T21:59:14.836Z,98445.72
2022-12-23T22:01:42.907Z,98448.34
2022-12-23T22:04:10.623Z,98448.34
2022-12-23T22:06:43.634Z,98444.09
2022-12-23T22:09:16.076Z,98443.50
2022-12-23T22:11:43.946Z,98445.09
2022-12-23T22:14:16.636Z,98452.03
2022-12-23T22:16:44.076Z,98441.84
2022-12-23T22:19:12.475Z,98439.00
2022-12-23T22:21:39.773Z,98440.44
2022-12-23T22:24:07.635Z,98439.41
2022-12-23T22:26:35.928Z,98442.25
2022-12-23T22:29:06.407Z,98434.97
2022-12-23T22:31:42.441Z,98432.09
2022-12-23T22:34:19.210Z,98435.75
2022-12-23T22:36:49.462Z,98433.31
2022-12-23T22:39:21.983Z,98428.03
2022-12-23T22:41:52.929Z,98434.97
2022-12-23T22:44:22.256Z,98424.38
2022-12-23T22:46:51.328Z,98424.78
2022-12-23T22:49:46.037Z,98427.22
2022-12-23T22:52:14.272Z,98422.75
2022-12-23T22:54:41.939Z,98431.69
2022-12-23T22:57:11.376Z,98425.59
2022-12-23T22:59:38.982Z,98426.22
2022-12-23T23:02:06.262Z,98428.44
2022-12-23T23:04:33.946Z,98421.13
2022-12-23T23:07:01.380Z,98419.91
2022-12-23T23:09:28.934Z,98419.91
2022-12-23T23:11:56.185Z,98419.91
2022-12-23T23:14:23.543Z,98414.00
2022-12-23T23:16:51.148Z,98416.66
2022-12-23T23:19:20.556Z,98413.78
2022-12-23T23:21:48.790Z,98414.63
2022-12-23T23:24:16.163Z,98412.56
2022-12-23T23:26:43.291Z,98410.16
2022-12-23T23:29:10.591Z,98406.28
2022-12-23T23:31:42.929Z,98410.53
2022-12-23T23:34:12.709Z,98419.50
2022-12-23T23:36:40.505Z,98412.56
2022-12-23T23:39:11.059Z,98414.22
2022-12-23T23:41:38.446Z,98415.81
2022-12-23T23:44:05.734Z,98424.78
2022-12-23T23:46:34.372Z,98420.31
2022-12-23T23:49:02.072Z,98426.41
2022-12-23T23:51:29.458Z,98422.75
2022-12-23T23:53:56.811Z,98420.09
2022-12-23T23:56:26.186Z,98417.47
2022-12-23T23:58:54.651Z,98425.38
